Time;durP1;ratioP1;P1;durP2;ratioP2;P2;SDS_P1;SDS_P2;PMS_P1;PMS_P2;Temp;Humidity;BMP_temperature;BMP_pressure;BME280_temperature;BME280_humidity;BME280_pressure;Samples;Min_cycle;Max_cycle;Signal;HPM_P1;HPM_P2
2023/09/20 00:02:20;;;;;;;9.55;2.35;;;;;;;;;;5010330;27;98926;-65
2023/09/20 00:04:47;;;;;;;11.40;2.83;;;;;;;;;;5017484;27;99473;-65
2023/09/20 00:07:14;;;;;;;12.80;3.00;;;;;;;;;;5014164;27;98482;-65
2023/09/20 00:09:41;;;;;;;10.60;2.47;;;;;;;;;;5020941;27;102461;-65
2023/09/20 00:12:07;;;;;;;9.70;2.70;;;;;;;;;;5013343;27;98609;-65
2023/09/20 00:14:34;;;;;;;13.88;2.83;;;;;;;;;;5011574;27;99350;-65
2023/09/20 00:17:00;;;;;;;16.42;2.85;;;;;;;;;;5011939;27;99850;-65
2023/09/20 00:19:27;;;;;;;8.93;2.20;;;;;;;;;;5008612;27;98547;-65
2023/09/20 00:21:54;;;;;;;8.32;2.55;;;;;;;;;;5007921;27;99135;-65
2023/09/20 00:24:20;;;;;;;11.90;2.47;;;;;;;;;;5008218;27;99445;-66
2023/09/20 00:26:46;;;;;;;12.95;2.88;;;;;;;;;;5006752;27;98574;-65
2023/09/20 00:29:13;;;;;;;14.65;2.80;;;;;;;;;;5022670;27;98493;-66
2023/09/20 00:31:39;;;;;;;10.40;2.58;;;;;;;;;;5019312;27;98580;-65
2023/09/20 00:34:06;;;;;;;8.50;2.53;;;;;;;;;;5014205;27;98959;-65
2023/09/20 00:36:32;;;;;;;14.55;2.67;;;;;;;;;;5010759;27;99458;-66
2023/09/20 00:38:59;;;;;;;6.70;2.90;;;;;;;;;;5013109;27;99266;-66
2023/09/20 00:41:25;;;;;;;15.00;3.78;;;;;;;;;;5014653;27;100243;-66
2023/09/20 00:43:52;;;;;;;7.80;2.42;;;;;;;;;;5009171;27;99466;-66
2023/09/20 00:46:19;;;;;;;10.38;2.38;;;;;;;;;;5019432;27;100374;-66
2023/09/20 00:48:47;;;;;;;9.38;3.03;;;;;;;;;;5016354;27;99267;-66
2023/09/20 00:51:14;;;;;;;8.10;2.80;;;;;;;;;;5014935;27;100968;-66
2023/09/20 00:53:42;;;;;;;8.38;2.60;;;;;;;;;;5020987;27;100131;-65
2023/09/20 00:56:09;;;;;;;12.15;3.03;;;;;;;;;;5009391;27;99775;-65
2023/09/20 00:58:36;;;;;;;17.52;3.15;;;;;;;;;;5017734;27;100496;-65
2023/09/20 01:01:04;;;;;;;7.70;2.55;;;;;;;;;;5012605;27;99151;-67
2023/09/20 01:03:33;;;;;;;15.70;2.97;;;;;;;;;;5014839;27;101369;-67
2023/09/20 01:06:01;;;;;;;14.45;2.67;;;;;;;;;;5017302;27;98814;-67
2023/09/20 01:08:27;;;;;;;11.30;2.97;;;;;;;;;;5012159;27;100194;-67
2023/09/20 01:10:54;;;;;;;9.75;2.50;;;;;;;;;;5014813;27;99675;-66
2023/09/20 01:13:22;;;;;;;11.50;2.83;;;;;;;;;;5024062;27;98513;-65
2023/09/20 01:15:48;;;;;;;12.40;3.00;;;;;;;;;;5012832;27;99142;-66
2023/09/20 01:18:14;;;;;;;12.60;2.80;;;;;;;;;;5016696;27;98605;-66
2023/09/20 01:20:41;;;;;;;12.48;2.70;;;;;;;;;;5014494;27;99234;-67
2023/09/20 01:23:07;;;;;;;13.25;2.90;;;;;;;;;;5016500;27;99451;-67
2023/09/20 01:25:35;;;;;;;11.45;2.70;;;;;;;;;;5010602;27;98736;-66
2023/09/20 01:28:03;;;;;;;7.28;2.42;;;;;;;;;;5010335;27;100544;-67
2023/09/20 01:30:31;;;;;;;13.65;3.40;;;;;;;;;;5016782;27;100588;-66
2023/09/20 01:32:59;;;;;;;14.25;3.22;;;;;;;;;;5014418;27;98686;-66
2023/09/20 01:35:26;;;;;;;11.32;2.80;;;;;;;;;;5013138;27;100861;-67
2023/09/20 01:37:53;;;;;;;19.58;3.88;;;;;;;;;;5013801;27;99142;-65
2023/09/20 01:40:20;;;;;;;16.85;3.00;;;;;;;;;;5011430;27;98545;-65
2023/09/20 01:42:48;;;;;;;8.10;2.67;;;;;;;;;;5012461;27;99510;-65
2023/09/20 01:45:16;;;;;;;14.55;2.80;;;;;;;;;;5020407;27;97893;-66
2023/09/20 01:47:44;;;;;;;10.68;2.65;;;;;;;;;;5014208;27;98511;-65
2023/09/20 01:50:19;;;;;;;7.80;2.45;;;;;;;;;;5014088;27;99869;-65
2023/09/20 01:52:49;;;;;;;13.10;2.90;;;;;;;;;;5009440;27;100225;-66
2023/09/20 01:55:18;;;;;;;9.02;2.40;;;;;;;;;;5008696;27;99980;-65
2023/09/20 01:57:45;;;;;;;11.80;2.90;;;;;;;;;;5018129;27;99466;-64
2023/09/20 02:00:25;;;;;;;18.05;2.88;;;;;;;;;;5013314;27;99124;-65
2023/09/20 02:02:53;;;;;;;;;;;;;;;;;;5011628;27;99460;-63
2023/09/20 02:05:21;;;;;;;7.93;2.85;;;;;;;;;;5021678;27;119159;-65
2023/09/20 02:07:48;;;;;;;9.88;2.58;;;;;;;;;;5013707;27;99105;-65
2023/09/20 02:10:16;;;;;;;9.55;2.53;;;;;;;;;;5018196;27;98875;-65
2023/09/20 02:12:46;;;;;;;13.05;2.78;;;;;;;;;;5014562;27;98635;-64
2023/09/20 02:15:13;;;;;;;9.95;3.00;;;;;;;;;;5012023;27;99159;-64
2023/09/20 02:17:43;;;;;;;11.35;2.90;;;;;;;;;;5013933;27;100221;-64
2023/09/20 02:20:11;;;;;;;11.80;3.00;;;;;;;;;;5013227;27;98582;-64
2023/09/20 02:22:38;;;;;;;12.52;2.65;;;;;;;;;;5009463;27;99418;-64
2023/09/20 02:25:08;;;;;;;9.57;2.47;;;;;;;;;;5009642;27;98539;-64
2023/09/20 02:27:35;;;;;;;9.98;2.65;;;;;;;;;;5012105;27;99088;-63
2023/09/20 02:30:01;;;;;;;7.25;2.20;;;;;;;;;;5012568;27;99477;-63
2023/09/20 02:32:27;;;;;;;9.23;3.10;;;;;;;;;;5009285;27;98959;-64
2023/09/20 02:34:54;;;;;;;10.40;2.80;;;;;;;;;;5009767;27;100171;-62
2023/09/20 02:37:21;;;;;;;8.85;2.50;;;;;;;;;;5009374;27;99457;-63
2023/09/20 02:39:47;;;;;;;10.05;2.78;;;;;;;;;;5009642;27;98634;-63
2023/09/20 02:42:13;;;;;;;9.63;2.70;;;;;;;;;;5009943;27;99411;-62
2023/09/20 02:44:40;;;;;;;11.63;2.28;;;;;;;;;;5009520;27;99148;-63
2023/09/20 02:47:07;;;;;;;12.70;2.75;;;;;;;;;;5015927;27;99171;-62
2023/09/20 02:49:33;;;;;;;14.18;3.22;;;;;;;;;;5011298;27;99541;-62
2023/09/20 02:52:00;;;;;;;12.30;2.63;;;;;;;;;;5009876;27;98502;-62
2023/09/20 02:54:28;;;;;;;8.75;2.40;;;;;;;;;;5009238;27;98656;-63
2023/09/20 02:56:55;;;;;;;7.97;2.28;;;;;;;;;;5009120;27;99453;-63
2023/09/20 02:59:22;;;;;;;15.98;3.53;;;;;;;;;;5024938;27;98739;-63
2023/09/20 03:01:49;;;;;;;7.35;2.67;;;;;;;;;;5010362;27;99539;-63
2023/09/20 03:04:15;;;;;;;10.02;2.80;;;;;;;;;;5019638;27;100546;-63
2023/09/20 03:06:44;;;;;;;10.82;2.40;;;;;;;;;;5011602;28;103511;-63
2023/09/20 03:09:11;;;;;;;12.18;3.08;;;;;;;;;;5014809;27;99476;-62
2023/09/20 03:11:37;;;;;;;12.57;3.25;;;;;;;;;;5013572;27;98911;-63
2023/09/20 03:14:10;;;;;;;8.88;2.35;;;;;;;;;;5010715;27;99257;-63
2023/09/20 03:16:36;;;;;;;13.10;2.90;;;;;;;;;;5011349;27;100067;-63
2023/09/20 03:19:04;;;;;;;14.00;2.65;;;;;;;;;;5007177;27;98562;-63
2023/09/20 03:21:31;;;;;;;7.93;2.28;;;;;;;;;;5013467;27;99446;-62
2023/09/20 03:23:59;;;;;;;12.75;3.08;;;;;;;;;;5010374;27;98710;-61
2023/09/20 03:26:26;;;;;;;12.43;2.45;;;;;;;;;;5013798;27;98465;-62
2023/09/20 03:28:56;;;;;;;9.70;2.20;;;;;;;;;;5009565;27;100534;-63
2023/09/20 03:31:26;;;;;;;10.52;2.75;;;;;;;;;;5009746;27;99482;-62
2023/09/20 03:33:53;;;;;;;11.43;2.70;;;;;;;;;;5011420;27;100108;-62
2023/09/20 03:36:20;;;;;;;9.55;2.28;;;;;;;;;;5011888;27;100784;-63
2023/09/20 03:38:47;;;;;;;11.73;3.08;;;;;;;;;;5012275;27;99499;-64
2023/09/20 03:41:14;;;;;;;7.20;2.30;;;;;;;;;;5011727;27;98509;-64
2023/09/20 03:43:40;;;;;;;13.98;2.58;;;;;;;;;;5012144;27;99936;-64
2023/09/20 03:46:07;;;;;;;11.52;2.80;;;;;;;;;;5010698;27;99599;-64
2023/09/20 03:48:33;;;;;;;11.02;3.08;;;;;;;;;;5012512;27;99048;-64
2023/09/20 03:51:00;;;;;;;10.48;2.70;;;;;;;;;;5008069;27;98542;-64
2023/09/20 03:53:26;;;;;;;9.18;2.33;;;;;;;;;;5014168;27;99166;-64
2023/09/20 03:55:52;;;;;;;11.45;2.35;;;;;;;;;;5012752;27;100265;-64
2023/09/20 03:58:20;;;;;;;7.30;2.45;;;;;;;;;;5018330;27;98573;-64
2023/09/20 04:00:47;;;;;;;15.85;2.75;;;;;;;;;;5012180;27;99227;-64
2023/09/20 04:03:13;;;;;;;9.23;2.85;;;;;;;;;;5015386;27;100486;-66
2023/09/20 04:05:40;;;;;;;8.27;2.42;;;;;;;;;;5016509;27;98699;-64
2023/09/20 04:08:12;;;;;;;18.30;2.90;;;;;;;;;;5019067;27;99129;-66
2023/09/20 04:10:39;;;;;;;17.00;2.45;;;;;;;;;;5020707;27;98624;-66
2023/09/20 04:13:06;;;;;;;10.27;2.63;;;;;;;;;;5018844;27;99141;-66
2023/09/20 04:15:33;;;;;;;10.02;2.40;;;;;;;;;;5014022;27;100548;-66
2023/09/20 04:18:01;;;;;;;7.05;2.45;;;;;;;;;;5025110;27;98491;-66
2023/09/20 04:20:27;;;;;;;10.93;2.15;;;;;;;;;;5015717;27;100627;-66
2023/09/20 04:22:54;;;;;;;11.02;2.78;;;;;;;;;;5011347;27;99450;-66
2023/09/20 04:25:20;;;;;;;9.60;2.72;;;;;;;;;;5011343;27;98890;-66
2023/09/20 04:27:47;;;;;;;7.95;2.40;;;;;;;;;;5017577;27;100413;-66
2023/09/20 04:30:14;;;;;;;14.30;2.72;;;;;;;;;;5015301;27;99431;-67
2023/09/20 04:32:40;;;;;;;14.55;2.85;;;;;;;;;;5011577;27;100109;-66
2023/09/20 04:35:07;;;;;;;17.08;2.20;;;;;;;;;;5014513;27;99564;-66
2023/09/20 04:37:34;;;;;;;12.75;2.80;;;;;;;;;;5015426;27;98556;-67
2023/09/20 04:40:01;;;;;;;8.52;2.42;;;;;;;;;;5015651;27;99389;-66
2023/09/20 04:42:27;;;;;;;8.02;2.72;;;;;;;;;;5024753;27;99600;-66
2023/09/20 04:44:53;;;;;;;14.68;2.80;;;;;;;;;;5014773;27;99558;-66
2023/09/20 04:47:20;;;;;;;7.35;1.98;;;;;;;;;;5012418;27;100409;-66
2023/09/20 04:49:46;;;;;;;7.15;2.17;;;;;;;;;;5013202;27;99476;-63
2023/09/20 04:52:15;;;;;;;5.45;2.20;;;;;;;;;;5014841;27;98606;-64
2023/09/20 04:54:43;;;;;;;6.18;2.13;;;;;;;;;;5016158;27;100556;-63
2023/09/20 04:57:13;;;;;;;9.45;2.63;;;;;;;;;;5018572;27;100018;-62
2023/09/20 04:59:42;;;;;;;8.30;1.90;;;;;;;;;;5017687;27;100536;-62
2023/09/20 05:02:10;;;;;;;8.37;2.00;;;;;;;;;;5011983;27;100059;-63
2023/09/20 05:04:38;;;;;;;10.63;2.78;;;;;;;;;;5014058;27;100274;-62
2023/09/20 05:07:05;;;;;;;9.52;2.45;;;;;;;;;;5009454;27;99368;-62
2023/09/20 05:09:34;;;;;;;14.25;2.83;;;;;;;;;;5012672;27;100186;-62
2023/09/20 05:12:02;;;;;;;10.70;2.73;;;;;;;;;;5015421;27;98622;-62
2023/09/20 05:14:29;;;;;;;16.30;2.45;;;;;;;;;;5017741;27;99319;-63
2023/09/20 05:16:55;;;;;;;11.07;2.90;;;;;;;;;;5014782;27;98730;-62
2023/09/20 05:19:24;;;;;;;11.57;2.30;;;;;;;;;;5012300;27;99908;-62
2023/09/20 05:21:51;;;;;;;9.65;2.50;;;;;;;;;;5015923;27;99541;-62
2023/09/20 05:24:17;;;;;;;7.45;3.28;;;;;;;;;;5013169;27;98669;-62
2023/09/20 05:26:44;;;;;;;6.32;2.25;;;;;;;;;;5015359;27;100226;-63
2023/09/20 05:29:10;;;;;;;11.45;2.50;;;;;;;;;;5010355;27;99525;-63
2023/09/20 05:31:37;;;;;;;9.23;2.70;;;;;;;;;;5019233;27;98585;-64
2023/09/20 05:34:05;;;;;;;12.18;2.80;;;;;;;;;;5011898;27;99412;-62
2023/09/20 05:36:32;;;;;;;7.47;2.60;;;;;;;;;;5019121;27;100037;-62
2023/09/20 05:38:58;;;;;;;9.07;3.92;;;;;;;;;;5008996;27;99141;-62
2023/09/20 05:41:28;;;;;;;15.02;2.50;;;;;;;;;;5012419;27;100506;-62
2023/09/20 05:43:54;;;;;;;7.05;2.65;;;;;;;;;;5011206;27;98654;-62
2023/09/20 05:46:24;;;;;;;7.47;2.40;;;;;;;;;;5018058;27;99200;-63
2023/09/20 05:48:52;;;;;;;8.57;2.77;;;;;;;;;;5018880;27;99469;-60
2023/09/20 05:51:18;;;;;;;8.85;3.13;;;;;;;;;;5010952;27;98037;-62
2023/09/20 05:53:45;;;;;;;12.93;2.72;;;;;;;;;;5015894;27;98528;-63
2023/09/20 05:56:12;;;;;;;12.70;2.72;;;;;;;;;;5016757;27;99498;-61
2023/09/20 05:58:40;;;;;;;13.60;2.63;;;;;;;;;;5016049;27;99561;-63
2023/09/20 06:01:10;;;;;;;10.02;2.72;;;;;;;;;;5010555;27;99618;-61
2023/09/20 06:03:36;;;;;;;4.47;2.40;;;;;;;;;;5011978;27;98683;-60
2023/09/20 06:06:07;;;;;;;7.05;2.70;;;;;;;;;;5009171;27;99254;-61
2023/09/20 06:08:35;;;;;;;6.05;2.63;;;;;;;;;;5012482;27;100516;-62
2023/09/20 06:11:04;;;;;;;9.30;3.20;;;;;;;;;;5014194;27;100903;-61
2023/09/20 06:13:31;;;;;;;8.02;2.80;;;;;;;;;;5013133;27;99325;-62
2023/09/20 06:16:03;;;;;;;12.20;2.97;;;;;;;;;;5011892;27;99786;-61
2023/09/20 06:18:29;;;;;;;10.10;2.83;;;;;;;;;;5015261;27;98584;-62
2023/09/20 06:20:59;;;;;;;10.43;3.00;;;;;;;;;;5013777;27;99463;-63
2023/09/20 06:23:27;;;;;;;13.07;3.20;;;;;;;;;;5013807;27;100064;-63
2023/09/20 06:25:53;;;;;;;12.40;3.42;;;;;;;;;;5008591;27;100800;-61
2023/09/20 06:28:19;;;;;;;9.77;2.85;;;;;;;;;;5012853;27;98449;-64
2023/09/20 06:30:47;;;;;;;9.82;3.25;;;;;;;;;;5013014;27;98707;-61
2023/09/20 06:33:13;;;;;;;14.55;3.45;;;;;;;;;;5009422;27;100234;-61
2023/09/20 06:35:40;;;;;;;10.05;3.28;;;;;;;;;;5008621;27;99569;-61
2023/09/20 06:38:09;;;;;;;14.57;3.03;;;;;;;;;;5018898;27;98506;-61
2023/09/20 06:40:38;;;;;;;8.90;2.67;;;;;;;;;;5015725;27;100523;-63
2023/09/20 06:43:07;;;;;;;14.50;3.40;;;;;;;;;;5011489;27;98750;-62
2023/09/20 06:45:34;;;;;;;14.60;2.80;;;;;;;;;;5014231;27;100312;-62
2023/09/20 06:48:02;;;;;;;13.35;3.40;;;;;;;;;;5018314;27;99217;-62
2023/09/20 06:50:31;;;;;;;7.55;2.60;;;;;;;;;;5013669;27;98534;-62
2023/09/20 06:52:59;;;;;;;9.15;2.90;;;;;;;;;;5014759;27;99101;-62
2023/09/20 06:55:25;;;;;;;13.40;3.83;;;;;;;;;;5011946;27;99617;-62
2023/09/20 06:57:52;;;;;;;7.90;2.60;;;;;;;;;;5012054;27;98616;-61
2023/09/20 07:00:38;;;;;;;9.80;3.17;;;;;;;;;;5008918;27;101250;-62
2023/09/20 07:03:05;;;;;;;11.40;2.90;;;;;;;;;;5010496;27;100540;-61
2023/09/20 07:05:31;;;;;;;9.82;3.00;;;;;;;;;;5013771;27;99139;-62
2023/09/20 07:08:01;;;;;;;10.25;2.70;;;;;;;;;;5016765;27;99541;-62
2023/09/20 07:10:31;;;;;;;9.23;2.60;;;;;;;;;;5012376;27;98539;-62
2023/09/20 07:12:58;;;;;;;6.80;2.25;;;;;;;;;;5012022;27;99285;-62
2023/09/20 07:15:25;;;;;;;7.20;2.55;;;;;;;;;;5008411;27;99866;-63
2023/09/20 07:18:07;;;;;;;13.73;2.92;;;;;;;;;;5020847;27;98631;-63
2023/09/20 07:20:36;;;;;;;9.10;2.80;;;;;;;;;;5012119;27;99171;-63
2023/09/20 07:23:03;;;;;;;10.43;2.67;;;;;;;;;;5012303;27;99935;-62
2023/09/20 07:25:31;;;;;;;10.40;2.42;;;;;;;;;;5016774;27;98613;-63
2023/09/20 07:28:00;;;;;;;6.63;2.28;;;;;;;;;;5010864;27;100500;-62
2023/09/20 07:30:31;;;;;;;11.10;2.88;;;;;;;;;;5013557;27;97845;-62
2023/09/20 07:32:59;;;;;;;7.40;2.60;;;;;;;;;;5008526;27;98537;-62
2023/09/20 07:35:52;;;;;;;8.17;2.47;;;;;;;;;;5007945;27;99534;-62
2023/09/20 07:38:26;;;;;;;13.02;3.08;;;;;;;;;;5009333;27;99371;-62
2023/09/20 07:41:09;;;;;;;12.75;2.92;;;;;;;;;;5008077;27;100034;-62
2023/09/20 07:43:43;;;;;;;10.43;3.22;;;;;;;;;;5008725;27;99580;-62
2023/09/20 07:46:13;;;;;;;10.25;3.70;;;;;;;;;;5007621;27;99915;-62
2023/09/20 07:48:52;;;;;;;5.43;2.08;;;;;;;;;;5014809;27;100290;-60
2023/09/20 07:51:28;;;;;;;10.27;2.00;;;;;;;;;;5013656;27;99162;-61
2023/09/20 07:53:55;;;;;;;12.15;2.47;;;;;;;;;;5010908;27;99233;-62
2023/09/20 07:56:22;;;;;;;6.28;2.22;;;;;;;;;;5012798;27;99417;-61
2023/09/20 07:58:49;;;;;;;6.15;2.38;;;;;;;;;;5007021;27;98496;-61
2023/09/20 08:01:18;;;;;;;11.55;2.70;;;;;;;;;;5010538;27;99447;-60
2023/09/20 08:03:50;;;;;;;4.23;2.20;;;;;;;;;;5007798;27;100349;-61
2023/09/20 08:06:19;;;;;;;9.23;2.40;;;;;;;;;;5009237;27;98576;-61
2023/09/20 08:08:46;;;;;;;4.85;2.25;;;;;;;;;;5012020;27;102169;-61
2023/09/20 08:11:13;;;;;;;7.18;2.40;;;;;;;;;;5008033;27;98492;-62
2023/09/20 08:13:41;;;;;;;6.20;2.33;;;;;;;;;;5009454;27;99249;-63
2023/09/20 08:16:10;;;;;;;11.70;2.30;;;;;;;;;;5010345;27;100610;-63
2023/09/20 08:21:22;;;;;;;11.75;2.28;;;;;;;;;;5010045;27;99156;-61
2023/09/20 08:59:53;;;;;;;5.63;1.92;;;;;;;;;;5010363;27;99520;-62
2023/09/20 09:02:21;;;;;;;5.85;2.08;;;;;;;;;;5010727;27;98682;-62
2023/09/20 09:04:53;;;;;;;5.57;1.88;;;;;;;;;;5012614;27;100254;-62
2023/09/20 09:07:22;;;;;;;5.28;2.10;;;;;;;;;;5014290;27;99430;-62
2023/09/20 09:09:49;;;;;;;7.03;2.63;;;;;;;;;;5011374;27;98775;-62
2023/09/20 09:12:16;;;;;;;7.03;2.20;;;;;;;;;;5011165;27;99123;-62
2023/09/20 09:14:43;;;;;;;11.27;2.13;;;;;;;;;;5010842;27;98797;-62
2023/09/20 09:17:09;;;;;;;7.18;2.00;;;;;;;;;;5015614;27;98491;-62
2023/09/20 09:19:37;;;;;;;11.75;2.95;;;;;;;;;;5017853;27;99700;-62
2023/09/20 09:22:04;;;;;;;3.72;1.80;;;;;;;;;;5010207;27;99256;-63
2023/09/20 09:24:42;;;;;;;6.65;2.03;;;;;;;;;;5012388;27;100954;-62
2023/09/20 09:27:09;;;;;;;3.92;1.90;;;;;;;;;;5018336;27;100496;-63
2023/09/20 09:29:35;;;;;;;8.82;2.28;;;;;;;;;;5010599;27;98588;-63
2023/09/20 09:32:02;;;;;;;5.65;2.13;;;;;;;;;;5015309;27;99658;-62
2023/09/20 09:34:29;;;;;;;9.45;2.60;;;;;;;;;;5009515;27;98713;-62
2023/09/20 09:36:56;;;;;;;7.30;2.20;;;;;;;;;;5009928;27;98616;-62
2023/09/20 09:39:24;;;;;;;4.10;1.50;;;;;;;;;;5011315;27;100354;-63
2023/09/20 09:42:00;;;;;;;13.00;2.60;;;;;;;;;;5013106;27;100030;-62
2023/09/20 09:44:27;;;;;;;9.40;2.05;;;;;;;;;;5013689;27;99224;-62
2023/09/20 09:46:54;;;;;;;4.97;2.20;;;;;;;;;;5009753;27;100254;-62
2023/09/20 09:49:20;;;;;;;6.85;2.35;;;;;;;;;;5010147;27;98531;-62
2023/09/20 09:51:52;;;;;;;8.98;2.15;;;;;;;;;;5010100;27;100475;-62
2023/09/20 09:54:19;;;;;;;4.07;2.08;;;;;;;;;;5008642;27;99626;-62
2023/09/20 09:56:47;;;;;;;4.28;1.75;;;;;;;;;;5009441;27;98670;-62
2023/09/20 09:59:13;;;;;;;5.13;1.70;;;;;;;;;;5018300;27;99938;-61
2023/09/20 10:01:40;;;;;;;7.57;2.00;;;;;;;;;;5009082;27;99689;-62
2023/09/20 10:04:13;;;;;;;9.30;2.22;;;;;;;;;;5017083;27;97823;-60
2023/09/20 10:06:44;;;;;;;11.05;2.20;;;;;;;;;;5009467;27;99694;-62
2023/09/20 10:09:12;;;;;;;7.38;2.35;;;;;;;;;;5013801;27;98532;-62
2023/09/20 10:11:42;;;;;;;4.43;2.17;;;;;;;;;;5012892;27;99474;-62
2023/09/20 10:14:10;;;;;;;6.03;2.30;;;;;;;;;;5013200;27;99458;-63
2023/09/20 10:16:39;;;;;;;3.63;1.85;;;;;;;;;;5011523;27;98644;-62
2023/09/20 10:19:10;;;;;;;5.93;2.05;;;;;;;;;;5010338;27;100259;-62
2023/09/20 10:21:39;;;;;;;5.80;2.65;;;;;;;;;;5013535;27;99622;-62
2023/09/20 10:24:07;;;;;;;4.75;2.25;;;;;;;;;;5017557;27;98592;-62
2023/09/20 10:26:37;;;;;;;9.38;2.65;;;;;;;;;;5017027;27;103636;-62
2023/09/20 10:29:21;;;;;;;6.68;2.58;;;;;;;;;;5010492;27;97917;-62
2023/09/20 10:31:48;;;;;;;5.53;2.58;;;;;;;;;;5009382;27;99619;-62
2023/09/20 10:34:14;;;;;;;4.78;2.28;;;;;;;;;;5008384;27;99454;-62
2023/09/20 10:36:51;;;;;;;8.27;2.20;;;;;;;;;;5009257;27;99209;-62
2023/09/20 10:39:18;;;;;;;7.55;2.58;;;;;;;;;;5009067;27;99910;-62
2023/09/20 10:41:48;;;;;;;8.60;2.00;;;;;;;;;;5008679;27;99487;-62
2023/09/20 10:44:14;;;;;;;;;;;;;;;;;;5009296;27;98524;-59
2023/09/20 10:46:43;;;;;;;12.20;2.97;;;;;;;;;;5014072;27;130057;-61
2023/09/20 10:49:09;;;;;;;4.50;2.15;;;;;;;;;;5009115;27;98720;-62
2023/09/20 10:51:39;;;;;;;3.05;2.10;;;;;;;;;;5009400;27;99133;-62
2023/09/20 10:54:36;;;;;;;8.15;2.58;;;;;;;;;;5017315;27;100001;-62
2023/09/20 10:57:05;;;;;;;6.20;2.20;;;;;;;;;;5008533;27;98769;-62
2023/09/20 10:59:31;;;;;;;7.68;2.70;;;;;;;;;;5010984;27;99130;-62
2023/09/20 11:01:58;;;;;;;5.43;1.92;;;;;;;;;;5009452;27;100993;-63
2023/09/20 11:04:25;;;;;;;8.50;2.40;;;;;;;;;;5008888;27;98573;-63
2023/09/20 11:06:54;;;;;;;7.53;1.98;;;;;;;;;;5008339;27;99350;-63
2023/09/20 11:09:24;;;;;;;7.20;1.90;;;;;;;;;;5011076;27;99601;-63
2023/09/20 11:11:50;;;;;;;7.65;2.17;;;;;;;;;;5008320;27;100209;-62
2023/09/20 11:14:21;;;;;;;4.50;1.85;;;;;;;;;;5007620;27;99522;-63
2023/09/20 11:16:49;;;;;;;8.07;2.13;;;;;;;;;;5011741;27;98610;-63
2023/09/20 11:19:15;;;;;;;6.20;2.65;;;;;;;;;;5013524;27;101976;-62
2023/09/20 11:21:42;;;;;;;4.47;2.15;;;;;;;;;;5008120;27;99612;-62
2023/09/20 11:24:10;;;;;;;3.75;1.88;;;;;;;;;;5021157;27;98510;-63
2023/09/20 11:26:39;;;;;;;10.23;2.03;;;;;;;;;;5011442;27;99215;-63
2023/09/20 11:29:09;;;;;;;14.10;2.20;;;;;;;;;;5012731;27;99544;-63
2023/09/20 11:31:36;;;;;;;6.50;2.15;;;;;;;;;;5011931;27;98664;-63
2023/09/20 11:34:03;;;;;;;9.98;2.58;;;;;;;;;;5007520;27;99648;-63
2023/09/20 11:36:37;;;;;;;6.85;2.35;;;;;;;;;;5007675;27;98622;-63
2023/09/20 11:39:05;;;;;;;4.15;2.42;;;;;;;;;;5014613;27;100120;-63
2023/09/20 11:41:38;;;;;;;8.20;2.35;;;;;;;;;;5010669;27;99501;-63
2023/09/20 11:44:08;;;;;;;6.28;2.38;;;;;;;;;;5010741;27;97954;-63
2023/09/20 11:46:34;;;;;;;8.77;2.38;;;;;;;;;;5010092;27;98963;-63
2023/09/20 11:49:02;;;;;;;7.30;1.92;;;;;;;;;;5016065;27;98475;-62
2023/09/20 11:51:29;;;;;;;19.88;2.75;;;;;;;;;;5007592;27;99455;-62
2023/09/20 11:53:55;;;;;;;4.47;2.63;;;;;;;;;;5014692;27;102061;-61
2023/09/20 11:56:31;;;;;;;6.05;2.88;;;;;;;;;;5008256;27;98761;-61
2023/09/20 11:59:18;;;;;;;7.32;2.33;;;;;;;;;;5007993;27;100645;-61
2023/09/20 12:01:45;;;;;;;8.10;2.88;;;;;;;;;;5007790;27;100846;-61
2023/09/20 12:04:13;;;;;;;4.05;2.13;;;;;;;;;;5009148;27;98412;-61
2023/09/20 12:06:40;;;;;;;9.00;2.40;;;;;;;;;;5007590;27;100228;-61
2023/09/20 12:09:06;;;;;;;6.68;2.35;;;;;;;;;;5008609;27;98770;-61
2023/09/20 12:11:33;;;;;;;3.60;2.25;;;;;;;;;;5007822;27;99308;-61
2023/09/20 12:13:59;;;;;;;5.35;2.58;;;;;;;;;;5010102;27;99149;-61
2023/09/20 12:16:25;;;;;;;8.98;2.72;;;;;;;;;;5010022;27;99532;-61
2023/09/20 12:18:54;;;;;;;4.93;2.50;;;;;;;;;;5008430;27;99970;-61
2023/09/20 12:21:21;;;;;;;5.53;2.67;;;;;;;;;;5006956;27;99547;-61
2023/09/20 12:23:49;;;;;;;3.63;2.08;;;;;;;;;;5009750;27;98603;-61
2023/09/20 12:26:17;;;;;;;4.28;2.00;;;;;;;;;;5011484;27;100186;-61
2023/09/20 12:28:44;;;;;;;5.20;2.90;;;;;;;;;;5011090;27;99472;-61
2023/09/20 12:31:11;;;;;;;6.05;2.17;;;;;;;;;;5014833;27;99087;-61
2023/09/20 12:33:38;;;;;;;5.97;2.65;;;;;;;;;;5026922;27;99209;-62
2023/09/20 12:36:05;;;;;;;5.60;2.40;;;;;;;;;;5015073;27;99404;-61
2023/09/20 12:38:31;;;;;;;3.53;1.95;;;;;;;;;;5012834;27;99082;-62
2023/09/20 12:40:58;;;;;;;11.05;9.75;;;;;;;;;;5008918;27;100750;-61
2023/09/20 12:43:25;;;;;;;59.40;46.83;;;;;;;;;;5015880;27;99846;-59
2023/09/20 12:45:54;;;;;;;94.97;68.20;;;;;;;;;;5012741;27;98865;-59
2023/09/20 12:48:23;;;;;;;101.63;78.45;;;;;;;;;;5016223;27;99772;-59
2023/09/20 12:50:49;;;;;;;155.10;124.88;;;;;;;;;;5010104;27;98667;-59
2023/09/20 12:53:16;;;;;;;191.40;142.27;;;;;;;;;;5012764;27;99350;-59
2023/09/20 12:55:42;;;;;;;311.80;237.63;;;;;;;;;;5018146;27;99560;-59
2023/09/20 12:58:10;;;;;;;246.98;196.77;;;;;;;;;;5016789;27;98051;-59
2023/09/20 13:00:37;;;;;;;211.75;174.07;;;;;;;;;;5011483;27;100568;-60
2023/09/20 13:03:12;;;;;;;150.23;111.03;;;;;;;;;;5008814;27;98622;-59
2023/09/20 13:05:40;;;;;;;178.32;144.43;;;;;;;;;;5014486;27;99439;-59
2023/09/20 13:08:19;;;;;;;141.25;111.10;;;;;;;;;;5009288;27;99504;-59
2023/09/20 13:10:47;;;;;;;206.18;177.90;;;;;;;;;;5018626;27;100802;-59
2023/09/20 13:13:14;;;;;;;157.70;132.68;;;;;;;;;;5011725;27;99356;-59
2023/09/20 13:15:42;;;;;;;143.75;119.93;;;;;;;;;;5013251;27;100519;-59
2023/09/20 13:18:09;;;;;;;183.43;161.60;;;;;;;;;;5010361;27;98599;-60
2023/09/20 13:20:37;;;;;;;106.88;92.15;;;;;;;;;;5013395;27;99286;-60
2023/09/20 13:23:04;;;;;;;146.23;122.65;;;;;;;;;;5009736;27;97852;-59
2023/09/20 13:25:32;;;;;;;117.20;103.10;;;;;;;;;;5012700;27;98579;-60
2023/09/20 13:27:58;;;;;;;100.18;90.43;;;;;;;;;;5008037;27;99681;-59
2023/09/20 13:30:26;;;;;;;129.80;115.50;;;;;;;;;;5008560;27;99292;-59
2023/09/20 13:32:53;;;;;;;220.65;199.43;;;;;;;;;;5013033;27;100502;-60
2023/09/20 13:35:19;;;;;;;241.20;215.63;;;;;;;;;;5007956;27;99528;-59
2023/09/20 13:37:46;;;;;;;143.77;128.90;;;;;;;;;;5007913;27;98638;-59
2023/09/20 13:40:14;;;;;;;247.82;213.25;;;;;;;;;;5008620;27;100453;-59
2023/09/20 13:42:42;;;;;;;246.43;221.15;;;;;;;;;;5011529;27;100515;-59
2023/09/20 13:45:09;;;;;;;272.15;243.52;;;;;;;;;;5011053;27;100332;-59
2023/09/20 13:47:37;;;;;;;281.17;243.90;;;;;;;;;;5012152;27;101359;-59
2023/09/20 13:50:04;;;;;;;328.40;282.52;;;;;;;;;;5012501;27;98781;-59
2023/09/20 13:52:30;;;;;;;394.40;351.33;;;;;;;;;;5016378;27;99500;-59
2023/09/20 13:54:57;;;;;;;431.70;384.25;;;;;;;;;;5015412;27;101256;-58
2023/09/20 13:57:23;;;;;;;494.38;433.88;;;;;;;;;;5008751;27;98908;-61
2023/09/20 13:59:54;;;;;;;489.92;432.90;;;;;;;;;;5010978;27;100568;-59
2023/09/20 14:02:20;;;;;;;434.73;377.98;;;;;;;;;;5010175;27;98606;-59
2023/09/20 14:04:47;;;;;;;474.77;404.48;;;;;;;;;;5014080;27;98588;-59
2023/09/20 14:07:13;;;;;;;424.95;367.13;;;;;;;;;;5007261;27;100743;-59
2023/09/20 14:09:42;;;;;;;341.50;287.17;;;;;;;;;;5013310;27;98890;-60
2023/09/20 14:12:09;;;;;;;255.15;228.00;;;;;;;;;;5012035;27;97943;-59
2023/09/20 14:14:36;;;;;;;250.93;209.75;;;;;;;;;;5014333;27;99527;-59
2023/09/20 14:17:04;;;;;;;119.68;83.50;;;;;;;;;;5013279;27;98641;-59
2023/09/20 14:19:30;;;;;;;11.38;7.18;;;;;;;;;;5007602;27;99311;-59
2023/09/20 14:21:57;;;;;;;35.38;16.75;;;;;;;;;;5008766;27;99514;-62
2023/09/20 14:24:25;;;;;;;47.30;30.33;;;;;;;;;;5016502;27;98820;-62
2023/09/20 14:26:52;;;;;;;10.38;4.28;;;;;;;;;;5012643;27;99601;-58
2023/09/20 14:29:19;;;;;;;19.90;15.27;;;;;;;;;;5010651;27;99228;-62
2023/09/20 14:31:47;;;;;;;5.00;1.67;;;;;;;;;;5009060;27;99208;-60
2023/09/20 14:34:14;;;;;;;5.85;1.58;;;;;;;;;;5013875;27;100503;-63
2023/09/20 14:36:42;;;;;;;5.45;2.10;;;;;;;;;;5009803;27;97794;-61
2023/09/20 14:39:09;;;;;;;4.13;1.48;;;;;;;;;;5016552;27;98848;-61
2023/09/20 14:41:35;;;;;;;4.45;1.65;;;;;;;;;;5011938;27;100501;-60
2023/09/20 14:44:03;;;;;;;4.55;1.73;;;;;;;;;;5010719;27;99445;-62
2023/09/20 14:46:29;;;;;;;4.38;1.52;;;;;;;;;;5024040;27;99837;-62
2023/09/20 14:48:55;;;;;;;3.22;1.42;;;;;;;;;;5012507;27;98598;-61
2023/09/20 14:51:22;;;;;;;2.30;1.30;;;;;;;;;;5012396;27;98743;-62
2023/09/20 14:53:50;;;;;;;2.05;1.25;;;;;;;;;;5009389;27;99440;-62
2023/09/20 14:56:17;;;;;;;4.63;1.73;;;;;;;;;;5011117;27;98752;-62
2023/09/20 14:58:44;;;;;;;7.43;1.23;;;;;;;;;;5011968;27;99130;-61
2023/09/20 15:01:12;;;;;;;4.60;1.40;;;;;;;;;;5014178;27;98745;-63
2023/09/20 15:03:39;;;;;;;9.55;1.60;;;;;;;;;;5014731;27;98552;-62
2023/09/20 15:06:07;;;;;;;3.88;1.38;;;;;;;;;;5011006;27;100457;-62
2023/09/20 15:08:33;;;;;;;4.50;1.65;;;;;;;;;;5013329;27;101312;-62
2023/09/20 15:11:03;;;;;;;3.28;1.75;;;;;;;;;;5010084;27;99807;-62
2023/09/20 15:13:29;;;;;;;6.15;1.30;;;;;;;;;;5007953;27;99465;-62
2023/09/20 15:15:58;;;;;;;3.65;1.45;;;;;;;;;;5009802;27;98570;-62